Smithville, New Jersey
Current Conditions -  °F | °C
As of 6:54 AM on Friday 21 Nov 2014 (Local Time) from KACY Reporting Station
Clear Clear  
Wind Chill: 15°   Ceiling: Unl
Heat Index: 27°   Visibility: 10mi
Dew Point: 10°   Wind: 16mph
Humidity: 49%   Direction: 290°WNW
Pressure: 30.25"   Gusts: NA
Location:  39.4315°N, 74.5003°W
Report Text: KACY 211154Z 29014KT 10SM CLR M03/M12 A3025 RMK AO2 SLP243 T10281122 11011 21028 51030
Loading
Personal Weather Stations






























Interactive Weather Map New forecast layout! Learn more

10-Day Weather Forecast

Advertisements
Track Severe Weather on mobile